UAL5K KSAN-KLAX
Flight info
| Callsign | UAL5K |
|---|---|
| Flight time | N/A |
| Altitude | 10000 |
| Route | CWARD2 SLI |
| Aircraft | B77W/H-SDE1E2E3FGHIJ2J3J4J5M1RWXY/LB1D1 |
Departure
| Time | 2026-05-05 01:18 |
|---|---|
| Airport | San Diego International Airport (KSAN) |
Arrival
| Time | N/A |
|---|---|
| Airport | Los Angeles International Airport (KLAX) |
| Time | Latitude | Longitude | Altitude | Speed | Heading |
|---|---|---|---|---|---|
| 2026-05-05 00:40 | 32.73262 | -117.20714 | 24 ft | 0 kts | 192° |
| 2026-05-05 00:58 | 32.73266 | -117.20713 | 24 ft | 2 kts | 192° |
| 2026-05-05 00:58 | 32.73281 | -117.20709 | 24 ft | 2 kts | 192° |
| 2026-05-05 00:59 | 32.73290 | -117.20707 | 24 ft | 2 kts | 192° |
| 2026-05-05 00:59 | 32.73305 | -117.20703 | 24 ft | 2 kts | 190° |
| 2026-05-05 00:59 | 32.73319 | -117.20700 | 24 ft | 2 kts | 189° |
| 2026-05-05 00:59 | 32.73334 | -117.20698 | 24 ft | 2 kts | 188° |
| 2026-05-05 01:00 | 32.73349 | -117.20695 | 24 ft | 2 kts | 187° |
| 2026-05-05 01:00 | 32.73364 | -117.20693 | 24 ft | 2 kts | 185° |
| 2026-05-05 01:00 | 32.73379 | -117.20692 | 24 ft | 2 kts | 184° |
| 2026-05-05 01:00 | 32.73394 | -117.20691 | 25 ft | 2 kts | 183° |
| 2026-05-05 01:01 | 32.73401 | -117.20690 | 25 ft | 0 kts | 182° |
| 2026-05-05 01:01 | 32.73402 | -117.20690 | 25 ft | 0 kts | 182° |
| 2026-05-05 01:03 | 32.73394 | -117.20690 | 25 ft | 2 kts | 182° |
| 2026-05-05 01:03 | 32.73373 | -117.20689 | 24 ft | 3 kts | 173° |
| 2026-05-05 01:04 | 32.73346 | -117.20675 | 24 ft | 4 kts | 139° |
| 2026-05-05 01:04 | 32.73333 | -117.20599 | 25 ft | 4 kts | 72° |
| 2026-05-05 01:04 | 32.73344 | -117.20578 | 25 ft | 2 kts | 42° |
| 2026-05-05 01:05 | 32.73351 | -117.20572 | 26 ft | 0 kts | 32° |
| 2026-05-05 01:05 | 32.73356 | -117.20569 | 26 ft | 1 kts | 27° |
| 2026-05-05 01:05 | 32.73377 | -117.20561 | 26 ft | 3 kts | 8° |
| 2026-05-05 01:05 | 32.73396 | -117.20560 | 27 ft | 2 kts | 4° |
| 2026-05-05 01:06 | 32.73415 | -117.20558 | 27 ft | 3 kts | 4° |
| 2026-05-05 01:06 | 32.73438 | -117.20557 | 27 ft | 3 kts | 4° |
| 2026-05-05 01:06 | 32.73465 | -117.20551 | 27 ft | 4 kts | 15° |
| 2026-05-05 01:06 | 32.73492 | -117.20534 | 27 ft | 4 kts | 39° |
| 2026-05-05 01:07 | 32.73517 | -117.20502 | 27 ft | 5 kts | 49° |
| 2026-05-05 01:07 | 32.73546 | -117.20464 | 27 ft | 6 kts | 49° |
| 2026-05-05 01:07 | 32.73575 | -117.20422 | 27 ft | 6 kts | 54° |
| 2026-05-05 01:07 | 32.73587 | -117.20368 | 27 ft | 7 kts | 92° |
| 2026-05-05 01:08 | 32.73578 | -117.20309 | 27 ft | 7 kts | 106° |
| 2026-05-05 01:08 | 32.73564 | -117.20245 | 27 ft | 8 kts | 105° |
| 2026-05-05 01:08 | 32.73548 | -117.20177 | 27 ft | 8 kts | 105° |
| 2026-05-05 01:08 | 32.73533 | -117.20106 | 27 ft | 9 kts | 105° |
| 2026-05-05 01:09 | 32.73513 | -117.20033 | 27 ft | 9 kts | 108° |
| 2026-05-05 01:09 | 32.73494 | -117.19958 | 27 ft | 9 kts | 106° |
| 2026-05-05 01:09 | 32.73474 | -117.19878 | 27 ft | 10 kts | 106° |
| 2026-05-05 01:09 | 32.73455 | -117.19799 | 28 ft | 9 kts | 106° |
| 2026-05-05 01:10 | 32.73437 | -117.19725 | 28 ft | 9 kts | 106° |
| 2026-05-05 01:10 | 32.73420 | -117.19652 | 28 ft | 9 kts | 106° |
| 2026-05-05 01:10 | 32.73402 | -117.19581 | 29 ft | 9 kts | 106° |
| 2026-05-05 01:10 | 32.73385 | -117.19511 | 30 ft | 8 kts | 106° |
| 2026-05-05 01:11 | 32.73364 | -117.19425 | 30 ft | 11 kts | 106° |
| 2026-05-05 01:11 | 32.73341 | -117.19334 | 30 ft | 11 kts | 106° |
| 2026-05-05 01:11 | 32.73319 | -117.19243 | 30 ft | 11 kts | 106° |
| 2026-05-05 01:11 | 32.73296 | -117.19150 | 30 ft | 12 kts | 106° |
| 2026-05-05 01:12 | 32.73272 | -117.19052 | 29 ft | 12 kts | 106° |
| 2026-05-05 01:12 | 32.73249 | -117.18954 | 29 ft | 12 kts | 105° |
| 2026-05-05 01:12 | 32.73224 | -117.18847 | 28 ft | 15 kts | 106° |
| 2026-05-05 01:12 | 32.73190 | -117.18710 | 28 ft | 17 kts | 106° |
| 2026-05-05 01:13 | 32.73157 | -117.18572 | 27 ft | 17 kts | 106° |
| 2026-05-05 01:13 | 32.73125 | -117.18440 | 27 ft | 16 kts | 106° |
| 2026-05-05 01:13 | 32.73094 | -117.18313 | 27 ft | 15 kts | 106° |
| 2026-05-05 01:13 | 32.73064 | -117.18190 | 27 ft | 15 kts | 106° |
| 2026-05-05 01:14 | 32.73036 | -117.18072 | 27 ft | 14 kts | 106° |
| 2026-05-05 01:14 | 32.73008 | -117.17958 | 28 ft | 13 kts | 106° |
| 2026-05-05 01:14 | 32.72984 | -117.17858 | 30 ft | 11 kts | 106° |
| 2026-05-05 01:14 | 32.72962 | -117.17770 | 31 ft | 6 kts | 106° |
| 2026-05-05 01:15 | 32.72953 | -117.17721 | 32 ft | 5 kts | 98° |
| 2026-05-05 01:15 | 32.72953 | -117.17680 | 33 ft | 0 kts | 76° |
| 2026-05-05 01:15 | 32.72954 | -117.17680 | 33 ft | 0 kts | 76° |
| 2026-05-05 01:16 | 32.72955 | -117.17675 | 33 ft | 1 kts | 76° |
| 2026-05-05 01:16 | 32.72965 | -117.17643 | 33 ft | 6 kts | 58° |
| 2026-05-05 01:17 | 32.72999 | -117.17612 | 34 ft | 5 kts | 11° |
| 2026-05-05 01:17 | 32.73028 | -117.17632 | 34 ft | 5 kts | 298° |
| 2026-05-05 01:17 | 32.73044 | -117.17683 | 33 ft | 12 kts | 289° |
| 2026-05-05 01:17 | 32.73152 | -117.18127 | 28 ft | 108 kts | 286° |
| 2026-05-05 01:18 | 32.73439 | -117.19314 | 248 ft | 182 kts | 284° |
| 2026-05-05 01:18 | 32.73833 | -117.20742 | 1654 ft | 185 kts | 294° |
| 2026-05-05 01:18 | 32.74445 | -117.21939 | 2775 ft | 178 kts | 301° |
| 2026-05-05 01:18 | 32.75151 | -117.23222 | 3427 ft | 196 kts | 302° |
| 2026-05-05 01:19 | 32.75922 | -117.24612 | 4191 ft | 210 kts | 302° |
| 2026-05-05 01:19 | 32.76737 | -117.26084 | 4975 ft | 225 kts | 302° |
| 2026-05-05 01:19 | 32.77622 | -117.27679 | 5765 ft | 241 kts | 302° |
| 2026-05-05 01:19 | 32.78566 | -117.29380 | 6587 ft | 256 kts | 302° |
| 2026-05-05 01:20 | 32.79555 | -117.31158 | 7579 ft | 264 kts | 301° |
| 2026-05-05 01:20 | 32.80607 | -117.32929 | 8684 ft | 268 kts | 304° |
| 2026-05-05 01:20 | 32.81759 | -117.34674 | 9577 ft | 275 kts | 305° |
| 2026-05-05 01:20 | 32.82958 | -117.36503 | 9920 ft | 282 kts | 304° |
| 2026-05-05 01:21 | 32.84230 | -117.38474 | 9968 ft | 318 kts | 304° |
| 2026-05-05 01:21 | 32.84676 | -117.39167 | 9965 ft | 325 kts | 304° |
| 2026-05-05 01:21 | 32.86992 | -117.42754 | 9958 ft | 330 kts | 304° |
| 2026-05-05 01:21 | 32.88386 | -117.44914 | 9955 ft | 329 kts | 304° |
| 2026-05-05 01:22 | 32.89784 | -117.47086 | 9956 ft | 331 kts | 305° |
| 2026-05-05 01:22 | 32.91178 | -117.49254 | 9955 ft | 330 kts | 304° |
| 2026-05-05 01:22 | 32.92576 | -117.51429 | 9986 ft | 330 kts | 304° |
| 2026-05-05 01:22 | 32.93966 | -117.53593 | 9953 ft | 329 kts | 304° |
| 2026-05-05 01:23 | 32.95355 | -117.55758 | 9941 ft | 330 kts | 304° |
| 2026-05-05 01:23 | 32.96769 | -117.57961 | 9938 ft | 330 kts | 304° |
| 2026-05-05 01:23 | 32.98159 | -117.60129 | 9933 ft | 330 kts | 304° |
| 2026-05-05 01:23 | 32.99551 | -117.62302 | 9935 ft | 329 kts | 305° |
| 2026-05-05 01:24 | 33.00942 | -117.64474 | 9945 ft | 331 kts | 304° |
| 2026-05-05 01:24 | 33.02330 | -117.66642 | 9942 ft | 330 kts | 304° |
| 2026-05-05 01:24 | 33.03711 | -117.68801 | 9939 ft | 329 kts | 304° |
| 2026-05-05 01:24 | 33.05100 | -117.70974 | 9936 ft | 330 kts | 304° |
| 2026-05-05 01:25 | 33.06565 | -117.73080 | 9918 ft | 332 kts | 312° |
| 2026-05-05 01:25 | 33.08287 | -117.74920 | 9944 ft | 332 kts | 316° |
| 2026-05-05 01:25 | 33.10055 | -117.76712 | 9944 ft | 335 kts | 316° |
| 2026-05-05 01:25 | 33.11828 | -117.78504 | 9930 ft | 334 kts | 316° |
| 2026-05-05 01:26 | 33.13592 | -117.80293 | 9946 ft | 332 kts | 316° |
| 2026-05-05 01:26 | 33.15357 | -117.82088 | 9949 ft | 334 kts | 315° |
| 2026-05-05 01:26 | 33.17129 | -117.83893 | 9931 ft | 335 kts | 316° |
| 2026-05-05 01:26 | 33.18982 | -117.85565 | 9930 ft | 336 kts | 327° |
| 2026-05-05 01:27 | 33.21194 | -117.86583 | 9929 ft | 342 kts | 341° |
| 2026-05-05 01:27 | 33.23526 | -117.87228 | 9935 ft | 342 kts | 344° |
| 2026-05-05 01:27 | 33.25835 | -117.87804 | 9939 ft | 343 kts | 344° |
| 2026-05-05 01:27 | 33.28184 | -117.88386 | 9928 ft | 343 kts | 345° |
| 2026-05-05 01:28 | 33.30515 | -117.88963 | 9923 ft | 341 kts | 345° |
| 2026-05-05 01:28 | 33.32848 | -117.89543 | 9934 ft | 342 kts | 344° |
| 2026-05-05 01:28 | 33.35179 | -117.90124 | 9930 ft | 336 kts | 345° |
| 2026-05-05 01:28 | 33.37405 | -117.90675 | 9903 ft | 319 kts | 345° |
| 2026-05-05 01:29 | 33.39557 | -117.91325 | 9431 ft | 320 kts | 340° |
| 2026-05-05 01:29 | 33.41701 | -117.92104 | 8814 ft | 325 kts | 339° |
| 2026-05-05 01:29 | 33.43868 | -117.92903 | 8146 ft | 328 kts | 340° |
| 2026-05-05 01:29 | 33.46044 | -117.93699 | 7487 ft | 327 kts | 340° |
| 2026-05-05 01:30 | 33.48231 | -117.94495 | 6833 ft | 325 kts | 340° |
| 2026-05-05 01:30 | 33.50345 | -117.95264 | 6419 ft | 315 kts | 340° |
| 2026-05-05 01:30 | 33.52404 | -117.96011 | 6601 ft | 311 kts | 340° |
| 2026-05-05 01:30 | 33.54478 | -117.96768 | 6776 ft | 310 kts | 340° |
| 2026-05-05 01:31 | 33.56552 | -117.97523 | 6808 ft | 311 kts | 340° |
| 2026-05-05 01:31 | 33.58559 | -117.98252 | 6788 ft | 290 kts | 340° |
| 2026-05-05 01:31 | 33.60464 | -117.98946 | 6832 ft | 283 kts | 340° |
| 2026-05-05 01:31 | 33.62343 | -117.99631 | 6808 ft | 275 kts | 340° |
| 2026-05-05 01:32 | 33.64157 | -118.00294 | 6807 ft | 273 kts | 340° |
| 2026-05-05 01:32 | 33.65989 | -118.00964 | 6806 ft | 274 kts | 340° |
| 2026-05-05 01:32 | 33.67802 | -118.01626 | 6809 ft | 274 kts | 340° |
| 2026-05-05 01:32 | 33.69642 | -118.02299 | 6808 ft | 274 kts | 340° |
| 2026-05-05 01:33 | 33.71474 | -118.02968 | 6811 ft | 275 kts | 340° |
| 2026-05-05 01:33 | 33.73298 | -118.03635 | 6808 ft | 275 kts | 340° |
| 2026-05-05 01:33 | 33.75149 | -118.04312 | 6807 ft | 275 kts | 340° |
| 2026-05-05 01:33 | 33.76974 | -118.04949 | 6810 ft | 275 kts | 341° |
| 2026-05-05 01:34 | 33.78820 | -118.05580 | 6807 ft | 275 kts | 341° |
| 2026-05-05 01:34 | 33.80677 | -118.06214 | 6810 ft | 275 kts | 341° |
| 2026-05-05 01:34 | 33.82502 | -118.06826 | 6764 ft | 270 kts | 341° |
| 2026-05-05 01:34 | 33.84312 | -118.07443 | 6306 ft | 267 kts | 341° |
| 2026-05-05 01:35 | 33.86093 | -118.08044 | 5847 ft | 263 kts | 341° |
| 2026-05-05 01:35 | 33.87843 | -118.08635 | 5385 ft | 260 kts | 341° |
| 2026-05-05 01:35 | 33.89565 | -118.09218 | 4925 ft | 257 kts | 341° |
| 2026-05-05 01:35 | 33.91270 | -118.09803 | 4463 ft | 255 kts | 342° |
| 2026-05-05 01:36 | 33.92965 | -118.10403 | 4000 ft | 252 kts | 338° |
| 2026-05-05 01:36 | 33.94419 | -118.11481 | 3507 ft | 245 kts | 310° |
| 2026-05-05 01:36 | 33.95291 | -118.13199 | 3062 ft | 236 kts | 292° |
| 2026-05-05 01:36 | 33.95763 | -118.14998 | 2930 ft | 216 kts | 276° |
| 2026-05-05 01:37 | 33.95840 | -118.16695 | 2934 ft | 192 kts | 268° |
| 2026-05-05 01:37 | 33.95755 | -118.18256 | 2930 ft | 182 kts | 264° |
| 2026-05-05 01:37 | 33.95616 | -118.19704 | 2928 ft | 167 kts | 263° |
| 2026-05-05 01:37 | 33.95480 | -118.21044 | 2935 ft | 158 kts | 262° |
| 2026-05-05 01:38 | 33.95346 | -118.22381 | 2738 ft | 154 kts | 262° |
| 2026-05-05 01:38 | 33.95224 | -118.23594 | 2542 ft | 145 kts | 262° |
| 2026-05-05 01:38 | 33.95106 | -118.24765 | 2355 ft | 138 kts | 262° |
| 2026-05-05 01:38 | 33.94991 | -118.25900 | 2174 ft | 137 kts | 262° |
| 2026-05-05 01:39 | 33.94875 | -118.27037 | 1986 ft | 137 kts | 262° |
| 2026-05-05 01:39 | 33.94760 | -118.28180 | 1801 ft | 136 kts | 262° |
| 2026-05-05 01:39 | 33.94645 | -118.29312 | 1615 ft | 137 kts | 261° |
| 2026-05-05 01:39 | 33.94531 | -118.30440 | 1427 ft | 137 kts | 262° |
| 2026-05-05 01:40 | 33.94416 | -118.31585 | 1239 ft | 137 kts | 262° |
| 2026-05-05 01:40 | 33.94302 | -118.32705 | 1054 ft | 136 kts | 262° |
| 2026-05-05 01:40 | 33.94185 | -118.33843 | 876 ft | 135 kts | 261° |
| 2026-05-05 01:40 | 33.94069 | -118.34972 | 682 ft | 136 kts | 262° |
| 2026-05-05 01:41 | 33.93959 | -118.36086 | 498 ft | 134 kts | 262° |
| 2026-05-05 01:41 | 33.93850 | -118.37211 | 324 ft | 135 kts | 262° |
| 2026-05-05 01:41 | 33.93730 | -118.38332 | 126 ft | 134 kts | 262° |
| 2026-05-05 01:41 | 33.93628 | -118.39325 | 114 ft | 100 kts | 263° |